sim
Sign-in with your pilot id or email,
or register
Callsign
Passwort

Schedule Details

Flight Number: RYR4484 (3)
Departure: Nuremberg Airport (EDDN) at 09:20
Arrival: Thessaloniki International Airport (LGTS) at 11:40
Route: Ryanair Passenger Schedule. Enter filed route here before submitting Pirep.

Weather Information
Getting current METAR information for EDDN 252120Z 13006KT CAVOK 16/03 Q1008
Getting current METAR information for LGTS 252120Z 00000KT CAVOK 15/12 Q1020 NOSIG

Schedule Frequency

Route Map